2019/09/23 06:50 EDDW 230650Z 26003KT 9999 SCT015 BKN021 15/12 Q1011 BECMG 25005KT